Time;durP1;ratioP1;P1;durP2;ratioP2;P2;SDS_P1;SDS_P2;PMS_P1;PMS_P2;Temp;Humidity;BMP_temperature;BMP_pressure;BME280_temperature;BME280_humidity;BME280_pressure;Samples;Min_cycle;Max_cycle;Signal;HPM_P1;HPM_P2
2021/12/30 00:01:30;;;;;;;42.10;7.22;;;8.60;99.90;;;;;;5020543;28;20049;-72
2021/12/30 00:03:55;;;;;;;42.97;6.78;;;8.50;99.90;;;;;;5053697;28;20498;-71
2021/12/30 00:06:22;;;;;;;37.92;6.97;;;8.50;99.90;;;;;;5033664;28;20081;-71
2021/12/30 00:09:09;;;;;;;30.15;5.88;;;8.50;99.90;;;;;;5001334;28;20061;-72
2021/12/30 00:11:54;;;;;;;39.38;6.72;;;8.50;99.90;;;;;;5017047;28;20508;-72
2021/12/30 00:14:39;;;;;;;34.70;5.97;;;8.40;99.90;;;;;;5017291;28;20079;-72
2021/12/30 00:17:17;;;;;;;42.42;6.57;;;8.30;99.90;;;;;;5033478;28;20053;-71
2021/12/30 00:19:43;;;;;;;33.35;5.35;;;8.60;99.90;;;;;;5036940;28;20556;-71
2021/12/30 00:22:10;;;;;;;31.20;5.80;;;8.30;99.90;;;;;;5036856;28;20092;-71
2021/12/30 00:24:36;;;;;;;42.70;7.95;;;8.30;99.90;;;;;;5037173;28;20472;-72
2021/12/30 00:27:01;;;;;;;42.08;7.57;;;8.30;99.90;;;;;;5036495;28;20071;-71
2021/12/30 00:29:28;;;;;;;32.10;7.18;;;8.40;99.90;;;;;;5037144;28;20136;-72
2021/12/30 00:31:54;;;;;;;37.17;7.05;;;8.20;99.90;;;;;;5033570;28;20053;-72
2021/12/30 00:34:19;;;;;;;37.53;6.88;;;8.20;99.90;;;;;;5035560;28;20056;-71
2021/12/30 00:36:46;;;;;;;32.60;6.30;;;8.10;99.90;;;;;;5053837;28;20072;-71
2021/12/30 00:39:12;;;;;;;41.70;6.50;;;8.10;99.90;;;;;;5036295;28;20481;-71
2021/12/30 00:41:38;;;;;;;39.05;5.93;;;8.10;99.90;;;;;;5053354;28;20102;-71
2021/12/30 00:44:25;;;;;;;40.90;6.65;;;8.10;99.90;;;;;;5036781;28;20119;-71
2021/12/30 00:47:03;;;;;;;37.53;6.68;;;8.10;99.90;;;;;;5020736;28;20052;-71
2021/12/30 00:49:30;;;;;;;47.67;7.10;;;8.10;99.90;;;;;;5016651;28;20045;-72
2021/12/30 00:51:56;;;;;;;37.65;6.93;;;8.10;99.90;;;;;;5033594;28;20053;-72
2021/12/30 00:54:27;;;;;;;33.70;5.72;;;8.20;99.90;;;;;;5020146;28;20455;-71
2021/12/30 00:56:53;;;;;;;39.92;6.70;;;8.50;99.90;;;;;;5035730;28;20124;-72
2021/12/30 00:59:21;;;;;;;32.33;7.10;;;8.00;99.90;;;;;;5036336;28;20087;-71
2021/12/30 01:01:50;;;;;;;35.40;6.60;;;8.00;99.90;;;;;;5033677;28;20053;-72
2021/12/30 01:07:12;;;;;;;40.20;7.47;;;8.00;99.90;;;;;;5035074;28;20057;-72
2021/12/30 01:09:38;;;;;;;39.08;6.65;;;8.00;99.90;;;;;;5036192;28;20071;-72
2021/12/30 01:12:13;;;;;;;38.72;6.18;;;8.00;99.90;;;;;;5035071;28;20052;-71
2021/12/30 01:14:45;;;;;;;37.25;5.57;;;8.00;99.90;;;;;;5035284;28;20440;-72
2021/12/30 01:17:22;;;;;;;32.75;5.93;;;7.90;99.90;;;;;;5034910;28;20507;-72
2021/12/30 01:19:50;;;;;;;37.38;7.03;;;7.80;99.90;;;;;;5053669;28;20488;-72
2021/12/30 01:22:33;;;;;;;30.42;5.97;;;7.90;99.90;;;;;;5018682;28;20048;-71
2021/12/30 01:25:08;;;;;;;38.45;7.18;;;7.80;99.90;;;;;;5035573;28;20064;-71
2021/12/30 01:27:40;;;;;;;34.53;6.65;;;8.00;99.90;;;;;;5053212;28;20539;-72
2021/12/30 01:30:12;;;;;;;34.88;5.78;;;7.80;99.90;;;;;;5029015;28;20378;-71
2021/12/30 01:32:39;;;;;;;36.53;5.72;;;7.80;99.90;;;;;;5034126;28;20063;-72
2021/12/30 01:35:26;;;;;;;42.58;6.35;;;7.70;99.90;;;;;;5035473;28;20049;-72
2021/12/30 01:37:57;;;;;;;36.10;6.05;;;7.80;99.90;;;;;;4970885;28;20165;-72
2021/12/30 01:40:55;;;;;;;28.05;5.68;;;7.80;99.90;;;;;;4947778;28;20071;-71
2021/12/30 01:43:22;;;;;;;45.83;5.97;;;7.70;99.90;;;;;;4952315;29;20047;-71
2021/12/30 01:45:50;;;;;;;32.50;6.10;;;7.80;99.90;;;;;;4952363;29;20125;-72
2021/12/30 01:48:18;;;;;;;38.35;7.60;;;7.70;99.90;;;;;;4921246;29;20456;-71
2021/12/30 01:51:10;;;;;;;33.92;6.35;;;7.70;99.90;;;;;;4968845;28;20086;-72
2021/12/30 01:53:38;;;;;;;35.88;5.90;;;7.80;99.90;;;;;;4952667;29;20135;-71
2021/12/30 01:56:45;;;;;;;38.80;5.70;;;7.70;99.90;;;;;;4936802;29;20434;-72
2021/12/30 01:59:35;;;;;;;32.17;5.47;;;7.70;99.90;;;;;;4932866;29;20039;-71
2021/12/30 02:02:03;;;;;;;32.60;5.90;;;7.70;99.90;;;;;;4917529;29;20039;-71
2021/12/30 02:04:33;;;;;;;35.05;5.95;;;7.70;99.90;;;;;;4930409;29;20531;-72
2021/12/30 02:07:01;;;;;;;32.33;6.07;;;7.80;99.90;;;;;;4935314;29;20520;-71
2021/12/30 02:09:29;;;;;;;36.25;6.55;;;7.80;99.90;;;;;;4949167;29;20070;-71
2021/12/30 02:11:55;;;;;;;39.08;7.13;;;7.70;99.90;;;;;;4949763;29;20056;-72
2021/12/30 02:14:21;;;;;;;39.28;7.72;;;7.80;99.90;;;;;;4937228;28;20056;-72
2021/12/30 02:16:52;;;;;;;45.05;8.20;;;7.80;99.90;;;;;;4995565;28;20085;-72
2021/12/30 02:19:19;;;;;;;45.65;9.07;;;7.80;99.90;;;;;;4993854;28;20052;-72
2021/12/30 02:21:45;;;;;;;55.28;11.10;;;7.90;99.90;;;;;;5014784;28;20087;-71
2021/12/30 02:24:10;;;;;;;46.80;11.25;;;8.00;99.90;;;;;;5014533;28;20049;-71
2021/12/30 02:26:36;;;;;;;57.47;12.15;;;8.20;99.90;;;;;;5034298;28;20060;-71
2021/12/30 02:29:03;;;;;;;58.03;12.40;;;8.20;99.90;;;;;;5015365;28;20084;-71
2021/12/30 02:31:30;;;;;;;57.70;13.32;;;8.30;99.90;;;;;;5014690;28;20092;-72
2021/12/30 02:34:00;;;;;;;63.65;13.60;;;9.00;99.90;;;;;;5015119;28;20470;-72
2021/12/30 02:36:32;;;;;;;57.08;13.07;;;8.40;99.90;;;;;;4998033;28;20465;-71
2021/12/30 02:41:55;;;;;;;54.72;12.23;;;8.60;99.90;;;;;;5013553;28;20049;-71
2021/12/30 02:44:22;;;;;;;54.58;12.85;;;8.60;99.90;;;;;;5015394;28;20041;-71
2021/12/30 02:46:56;;;;;;;54.17;12.52;;;8.70;99.90;;;;;;5013124;28;20046;-71
2021/12/30 02:49:22;;;;;;;58.90;14.23;;;8.90;99.90;;;;;;5015472;28;20049;-71
2021/12/30 02:51:47;;;;;;;55.05;12.93;;;8.70;99.90;;;;;;5034573;28;20088;-71
2021/12/30 02:54:13;;;;;;;51.78;13.73;;;8.80;99.90;;;;;;5018683;28;20049;-72
2021/12/30 02:56:46;;;;;;;51.20;14.18;;;8.80;99.90;;;;;;5017913;28;20061;-72
2021/12/30 02:59:13;;;;;;;60.03;14.00;;;8.80;99.90;;;;;;5001596;28;20386;-72
2021/12/30 03:01:38;;;;;;;54.25;14.15;;;8.90;99.90;;;;;;5017741;28;20049;-72
2021/12/30 03:04:04;;;;;;;63.15;14.27;;;8.90;99.90;;;;;;5017839;28;20359;-72
2021/12/30 03:06:32;;;;;;;58.30;15.32;;;8.90;99.90;;;;;;5017974;28;20053;-72
2021/12/30 03:08:59;;;;;;;53.88;15.07;;;8.90;99.90;;;;;;5017940;28;20124;-71
2021/12/30 03:11:29;;;;;;;53.47;14.82;;;9.00;99.90;;;;;;5001236;28;20049;-72
2021/12/30 03:13:56;;;;;;;51.20;14.90;;;9.00;99.90;;;;;;5017700;28;20041;-72
2021/12/30 03:16:49;;;;;;;66.95;15.43;;;9.00;99.90;;;;;;5017595;28;20085;-72
2021/12/30 03:19:16;;;;;;;50.83;14.77;;;9.10;99.90;;;;;;5017823;28;20042;-71
2021/12/30 03:21:43;;;;;;;57.35;15.77;;;9.10;99.90;;;;;;5020165;28;20056;-72
2021/12/30 03:24:10;;;;;;;55.33;15.48;;;9.10;99.90;;;;;;5017769;28;20044;-72
2021/12/30 03:26:37;;;;;;;56.95;15.68;;;9.20;99.90;;;;;;5000886;28;20092;-72
2021/12/30 03:29:05;;;;;;;54.90;14.50;;;9.20;99.90;;;;;;5013491;28;20053;-71
2021/12/30 03:31:30;;;;;;;47.10;15.48;;;9.30;99.90;;;;;;5011928;28;20041;-71
2021/12/30 03:33:59;;;;;;;58.08;14.70;;;9.20;99.90;;;;;;5030991;28;20061;-72
2021/12/30 03:36:28;;;;;;;51.53;14.95;;;9.30;99.90;;;;;;5007916;28;20447;-72
2021/12/30 03:38:55;;;;;;;60.38;15.60;;;9.20;99.90;;;;;;5013952;28;20173;-72
2021/12/30 03:41:28;;;;;;;55.42;14.98;;;9.30;99.90;;;;;;5017186;28;20053;-72
2021/12/30 03:43:59;;;;;;;43.58;14.70;;;9.30;99.90;;;;;;5000492;28;20069;-71
2021/12/30 03:46:25;;;;;;;61.35;15.35;;;9.30;99.90;;;;;;4998716;28;20758;-71
2021/12/30 03:48:52;;;;;;;56.50;15.98;;;9.30;99.90;;;;;;5020171;28;20045;-71
2021/12/30 03:51:22;;;;;;;58.17;13.52;;;9.30;99.90;;;;;;5000700;28;20398;-72
2021/12/30 03:54:00;;;;;;;53.42;14.80;;;9.30;99.90;;;;;;5017786;28;20417;-71
2021/12/30 03:56:31;;;;;;;51.33;13.43;;;9.40;99.90;;;;;;5016862;28;20454;-71
2021/12/30 03:58:58;;;;;;;57.67;15.15;;;9.40;99.90;;;;;;5017372;28;20111;-72
2021/12/30 04:01:28;;;;;;;46.33;14.55;;;9.40;99.90;;;;;;5016308;28;20111;-71
2021/12/30 04:03:55;;;;;;;48.55;14.10;;;9.40;99.90;;;;;;5018792;28;20037;-72
2021/12/30 04:06:22;;;;;;;47.53;14.93;;;9.30;99.90;;;;;;5034546;28;20056;-71
2021/12/30 04:08:50;;;;;;;54.78;14.02;;;9.30;99.90;;;;;;5020503;28;20042;-71
2021/12/30 04:11:15;;;;;;;50.35;13.68;;;9.30;99.90;;;;;;5016599;28;20056;-72
2021/12/30 04:13:42;;;;;;;51.13;13.63;;;9.30;99.90;;;;;;5019722;28;20053;-71
2021/12/30 04:16:11;;;;;;;60.72;14.35;;;9.30;99.90;;;;;;5016806;28;20052;-71
2021/12/30 04:18:37;;;;;;;62.13;18.65;;;9.30;99.90;;;;;;5019994;28;20170;-71
2021/12/30 04:21:04;;;;;;;61.40;16.10;;;9.30;99.90;;;;;;5017319;28;20049;-71
2021/12/30 04:23:31;;;;;;;65.97;14.38;;;9.30;99.90;;;;;;5017139;28;20061;-72
2021/12/30 04:25:57;;;;;;;60.60;13.80;;;9.30;99.90;;;;;;5000720;28;20397;-72
2021/12/30 04:28:24;;;;;;;52.75;14.00;;;9.40;99.90;;;;;;5017340;28;20077;-72
2021/12/30 04:30:50;;;;;;;55.63;13.68;;;9.40;99.90;;;;;;5030693;28;20046;-71
2021/12/30 04:36:13;;;;;;;62.20;14.60;;;9.60;99.90;;;;;;5016034;28;20115;-72
2021/12/30 04:38:38;;;;;;;55.80;14.43;;;9.70;99.90;;;;;;5000634;28;20064;-72
2021/12/30 04:41:07;;;;;;;61.22;14.68;;;9.80;99.90;;;;;;5040503;28;20052;-71
2021/12/30 04:43:45;;;;;;;58.90;15.55;;;9.80;99.90;;;;;;5053784;28;20052;-72
2021/12/30 04:46:12;;;;;;;56.47;13.75;;;10.20;99.90;;;;;;5055862;28;20423;-72
2021/12/30 04:48:40;;;;;;;57.88;13.75;;;9.90;99.90;;;;;;5040116;28;20049;-72
2021/12/30 04:51:06;;;;;;;59.33;14.00;;;9.90;99.90;;;;;;5041205;28;20040;-71
2021/12/30 04:53:31;;;;;;;57.35;15.13;;;9.90;99.90;;;;;;5042886;28;20076;-72
2021/12/30 04:55:57;;;;;;;52.03;14.10;;;10.00;99.90;;;;;;5051497;28;20053;-72
2021/12/30 04:58:23;;;;;;;63.63;15.57;;;10.00;99.90;;;;;;5053576;28;20127;-71
2021/12/30 05:00:49;;;;;;;46.17;13.85;;;10.10;99.90;;;;;;5055967;28;20048;-71
2021/12/30 05:03:15;;;;;;;43.40;14.27;;;10.10;99.90;;;;;;5037079;28;20075;-71
2021/12/30 05:05:50;;;;;;;47.30;14.63;;;10.10;99.90;;;;;;5036067;28;20049;-72
2021/12/30 05:08:19;;;;;;;51.85;13.88;;;10.20;99.90;;;;;;5019055;28;20067;-71
2021/12/30 05:10:45;;;;;;;46.65;13.80;;;10.20;99.90;;;;;;5019657;28;20044;-71
2021/12/30 05:13:12;;;;;;;42.30;13.77;;;10.20;99.90;;;;;;5040478;28;20492;-72
2021/12/30 05:15:39;;;;;;;44.67;13.38;;;10.20;99.90;;;;;;5055181;28;20374;-72
2021/12/30 05:18:10;;;;;;;44.35;13.88;;;10.30;99.90;;;;;;5028217;28;20114;-71
2021/12/30 05:20:37;;;;;;;33.55;12.70;;;10.30;99.90;;;;;;5036783;28;20079;-72
2021/12/30 05:23:05;;;;;;;35.85;12.98;;;10.30;99.90;;;;;;5053243;28;20059;-72
2021/12/30 05:25:36;;;;;;;32.88;12.27;;;10.40;99.90;;;;;;5035976;28;20075;-71
2021/12/30 05:28:03;;;;;;;33.17;13.20;;;10.30;99.90;;;;;;5024207;28;20051;-72
2021/12/30 05:30:30;;;;;;;31.02;12.60;;;10.40;99.90;;;;;;5052575;28;20055;-72
2021/12/30 05:32:57;;;;;;;36.20;12.90;;;10.50;99.90;;;;;;5035318;28;20052;-72
2021/12/30 05:35:25;;;;;;;28.35;11.95;;;10.50;99.90;;;;;;5035485;28;20045;-72
2021/12/30 05:37:50;;;;;;;35.65;13.15;;;10.50;99.90;;;;;;5033970;28;20481;-72
2021/12/30 05:40:20;;;;;;;30.60;12.77;;;10.50;99.90;;;;;;5035184;28;20053;-72
2021/12/30 05:42:46;;;;;;;33.58;14.52;;;10.50;99.90;;;;;;5034351;28;20102;-72
2021/12/30 05:45:14;;;;;;;40.45;14.65;;;10.60;99.90;;;;;;5035158;28;20049;-73
2021/12/30 05:47:41;;;;;;;39.95;14.77;;;10.60;99.90;;;;;;5032704;28;20083;-72
2021/12/30 05:50:09;;;;;;;44.55;16.05;;;10.60;99.90;;;;;;5035456;28;20084;-72
2021/12/30 05:52:36;;;;;;;46.17;17.10;;;10.70;99.90;;;;;;5018028;28;20047;-72
2021/12/30 05:55:05;;;;;;;51.88;18.40;;;10.70;99.90;;;;;;5018327;28;20110;-71
2021/12/30 05:57:31;;;;;;;53.38;19.88;;;10.70;99.90;;;;;;5034156;28;20063;-72
2021/12/30 05:59:58;;;;;;;58.67;20.60;;;10.80;99.90;;;;;;5032521;28;20049;-72
2021/12/30 06:02:49;;;;;;;61.38;20.17;;;10.80;99.90;;;;;;5025327;28;20504;-72
2021/12/30 06:05:15;;;;;;;65.70;19.60;;;10.80;99.90;;;;;;5032523;28;20045;-72
2021/12/30 06:07:42;;;;;;;58.63;19.60;;;10.90;99.90;;;;;;5048549;28;20068;-72
2021/12/30 06:10:10;;;;;;;69.57;21.58;;;10.90;99.90;;;;;;5051892;28;20477;-72
2021/12/30 06:12:36;;;;;;;66.97;20.13;;;11.00;99.90;;;;;;5052763;28;20061;-71
2021/12/30 06:15:03;;;;;;;67.22;21.08;;;11.00;99.90;;;;;;5035029;28;20138;-71
2021/12/30 06:17:30;;;;;;;64.28;20.08;;;11.00;99.90;;;;;;5051823;28;20128;-72
2021/12/30 06:19:56;;;;;;;68.75;20.80;;;11.10;99.90;;;;;;5017472;28;20081;-71
2021/12/30 06:22:21;;;;;;;66.88;20.40;;;11.10;99.90;;;;;;5047329;28;20044;-71
2021/12/30 06:24:49;;;;;;;70.57;19.20;;;11.10;99.90;;;;;;5032216;28;20037;-72
2021/12/30 06:27:16;;;;;;;58.42;19.35;;;11.10;99.90;;;;;;5033908;28;20374;-71
2021/12/30 06:29:42;;;;;;;62.22;18.50;;;11.10;99.90;;;;;;5017621;28;20580;-72
2021/12/30 06:32:07;;;;;;;58.78;17.33;;;11.10;99.90;;;;;;5050224;28;20116;-72
2021/12/30 06:34:34;;;;;;;61.17;18.70;;;11.20;99.90;;;;;;5034611;28;20048;-71
2021/12/30 06:36:59;;;;;;;61.38;17.50;;;11.20;99.90;;;;;;5033312;28;20136;-72
2021/12/30 06:39:25;;;;;;;57.28;18.27;;;11.20;99.90;;;;;;5033821;28;20458;-72
2021/12/30 06:41:51;;;;;;;60.50;19.25;;;11.30;99.90;;;;;;5032271;28;20110;-72
2021/12/30 06:44:16;;;;;;;62.40;19.17;;;11.30;99.90;;;;;;5033827;28;20136;-71
2021/12/30 06:46:52;;;;;;;54.92;18.30;;;11.30;99.90;;;;;;5051527;28;20422;-71
2021/12/30 06:49:35;;;;;;;61.70;18.98;;;11.30;99.90;;;;;;5027648;28;20053;-72
2021/12/30 06:52:00;;;;;;;58.75;18.13;;;11.30;99.90;;;;;;5026718;28;20056;-70
2021/12/30 06:54:29;;;;;;;54.17;18.02;;;11.30;99.90;;;;;;5062693;28;20489;-71
2021/12/30 06:56:55;;;;;;;41.25;14.43;;;11.20;99.90;;;;;;5047603;28;20098;-72
2021/12/30 06:59:22;;;;;;;49.60;18.17;;;11.30;99.90;;;;;;5051808;28;20185;-72
2021/12/30 07:01:48;;;;;;;41.42;15.77;;;11.30;99.90;;;;;;5016488;28;20591;-71
2021/12/30 07:04:13;;;;;;;43.88;15.27;;;11.30;99.90;;;;;;5043266;28;20136;-73
2021/12/30 07:07:04;;;;;;;42.90;16.13;;;11.30;99.90;;;;;;5034972;28;20481;-72
2021/12/30 07:09:47;;;;;;;44.28;14.70;;;11.40;99.90;;;;;;5015392;28;20052;-72
2021/12/30 07:12:13;;;;;;;35.80;13.32;;;11.40;99.90;;;;;;5049689;28;20041;-72
2021/12/30 07:14:51;;;;;;;33.75;14.10;;;11.40;99.90;;;;;;5017904;28;20374;-73
2021/12/30 07:18:08;;;;;;;32.65;11.27;;;11.20;99.90;;;;;;5037290;28;20108;-72
2021/12/30 08:12:19;;;;;;;6.57;3.80;;;11.30;99.90;;;;;;4973705;28;20085;-73
2021/12/30 08:14:45;;;;;;;5.47;3.85;;;11.60;99.90;;;;;;4986021;28;20098;-73
2021/12/30 08:17:13;;;;;;;5.80;3.88;;;11.60;99.90;;;;;;4956262;28;20050;-73
2021/12/30 08:19:47;;;;;;;6.28;3.50;;;11.60;99.90;;;;;;4977757;28;20056;-72
2021/12/30 08:22:39;;;;;;;6.63;4.15;;;11.90;99.90;;;;;;4988041;28;20110;-72
2021/12/30 08:25:30;;;;;;;7.10;3.65;;;11.60;99.90;;;;;;5037808;28;20115;-73
2021/12/30 08:27:58;;;;;;;4.82;3.30;;;11.60;99.90;;;;;;5005400;28;20040;-73
2021/12/30 08:30:33;;;;;;;4.90;3.35;;;11.70;99.90;;;;;;5036369;28;20099;-73
2021/12/30 08:32:59;;;;;;;6.63;4.00;;;11.70;99.90;;;;;;5035956;28;20048;-72
2021/12/30 08:35:25;;;;;;;7.28;4.35;;;11.70;99.90;;;;;;5035329;28;20068;-73
2021/12/30 08:37:54;;;;;;;7.97;5.60;;;11.70;99.90;;;;;;5035799;28;20041;-72
2021/12/30 08:40:23;;;;;;;11.85;7.05;;;11.70;99.90;;;;;;5036512;28;20037;-73
2021/12/30 08:42:53;;;;;;;13.43;7.18;;;11.80;99.90;;;;;;5036015;28;20044;-73
2021/12/30 08:45:36;;;;;;;13.82;7.95;;;11.90;99.90;;;;;;5034934;28;20037;-73
2021/12/30 08:48:19;;;;;;;15.35;8.48;;;11.80;99.90;;;;;;5033291;28;20131;-72
2021/12/30 08:51:08;;;;;;;14.52;8.90;;;11.90;99.90;;;;;;5033870;28;20136;-73
2021/12/30 08:53:40;;;;;;;18.17;9.35;;;11.90;99.90;;;;;;5033010;28;20045;-73
2021/12/30 08:56:06;;;;;;;;;;;11.90;99.90;;;;;;5032531;28;20462;-72
2021/12/30 08:58:45;;;;;;;14.95;8.57;;;11.90;99.90;;;;;;5053492;28;19921;-72
2021/12/30 09:01:14;;;;;;;14.48;8.70;;;12.00;99.90;;;;;;5028532;28;20114;-72
2021/12/30 09:03:42;;;;;;;17.50;8.40;;;12.10;99.90;;;;;;5031859;28;20060;-72
2021/12/30 09:06:08;;;;;;;14.88;7.97;;;12.00;99.90;;;;;;5019267;28;21755;-72
2021/12/30 09:09:03;;;;;;;16.63;7.38;;;12.10;99.90;;;;;;5000484;28;20052;-73
2021/12/30 09:11:35;;;;;;;13.43;6.63;;;12.10;99.90;;;;;;5032675;28;20053;-72
2021/12/30 09:14:02;;;;;;;11.43;5.78;;;12.10;99.90;;;;;;5012431;28;20079;-71
2021/12/30 09:16:32;;;;;;;12.15;6.13;;;12.10;99.90;;;;;;5015247;28;20049;-71
2021/12/30 09:19:13;;;;;;;13.68;6.40;;;12.10;99.90;;;;;;4995959;28;20581;-72
2021/12/30 09:21:51;;;;;;;11.13;6.07;;;11.80;99.90;;;;;;5000742;28;20067;-71
2021/12/30 09:24:16;;;;;;;12.30;6.15;;;12.10;99.90;;;;;;4996561;28;20077;-71
2021/12/30 09:26:43;;;;;;;11.02;5.95;;;12.10;99.90;;;;;;4997304;28;20046;-71
2021/12/30 09:29:12;;;;;;;13.32;5.90;;;12.40;99.90;;;;;;5013681;28;20080;-71
2021/12/30 09:32:03;;;;;;;13.40;6.80;;;12.10;99.90;;;;;;5015117;28;20088;-71
2021/12/30 09:34:32;;;;;;;11.02;7.38;;;12.20;99.90;;;;;;4999416;28;20056;-73
2021/12/30 09:37:02;;;;;;;14.07;7.95;;;12.20;99.90;;;;;;5014893;28;20057;-71
2021/12/30 09:39:29;;;;;;;11.80;8.23;;;12.20;99.90;;;;;;4997879;28;20135;-71
2021/12/30 09:41:55;;;;;;;16.65;8.38;;;12.20;99.90;;;;;;5014964;28;20085;-72
2021/12/30 09:44:24;;;;;;;16.40;7.85;;;12.30;99.90;;;;;;5011553;28;20084;-72
2021/12/30 09:46:50;;;;;;;13.68;8.77;;;12.20;99.90;;;;;;5014371;28;20068;-71
2021/12/30 09:49:22;;;;;;;14.27;8.88;;;12.20;99.90;;;;;;5015925;28;20611;-71
2021/12/30 09:51:48;;;;;;;15.35;8.40;;;12.20;99.90;;;;;;5014795;28;20053;-72
2021/12/30 09:54:14;;;;;;;17.67;8.70;;;12.30;99.90;;;;;;4996982;28;20046;-71
2021/12/30 09:56:41;;;;;;;13.15;9.05;;;12.30;99.90;;;;;;4996248;28;20042;-70
2021/12/30 09:59:08;;;;;;;16.40;7.57;;;12.30;99.90;;;;;;4995410;28;20053;-72
2021/12/30 10:01:36;;;;;;;16.00;8.43;;;12.30;99.90;;;;;;4995964;28;20064;-71
2021/12/30 10:04:04;;;;;;;14.13;8.70;;;12.30;99.90;;;;;;4989133;28;20046;-71
2021/12/30 10:06:40;;;;;;;11.98;7.80;;;12.30;99.90;;;;;;5029013;28;20061;-73
2021/12/30 10:09:12;;;;;;;11.63;8.10;;;12.30;99.90;;;;;;5034314;28;20115;-72
2021/12/30 10:11:50;;;;;;;14.02;7.63;;;12.30;99.90;;;;;;5034727;28;20553;-71
2021/12/30 10:14:34;;;;;;;13.50;7.30;;;12.60;99.90;;;;;;5018853;28;20366;-72
2021/12/30 10:17:18;;;;;;;13.10;7.97;;;12.30;99.90;;;;;;5034098;28;20116;-72
2021/12/30 10:19:47;;;;;;;20.92;7.32;;;12.30;99.90;;;;;;5033932;28;20059;-73
2021/12/30 10:22:16;;;;;;;13.30;7.47;;;12.20;99.90;;;;;;5017911;28;20142;-71
2021/12/30 10:24:43;;;;;;;13.80;7.72;;;12.20;99.90;;;;;;5018603;28;20183;-71
2021/12/30 10:27:09;;;;;;;15.35;6.72;;;12.30;99.90;;;;;;5034695;28;20037;-72
2021/12/30 10:29:43;;;;;;;16.77;6.00;;;12.30;99.90;;;;;;5034626;28;20112;-73
2021/12/30 10:32:16;;;;;;;17.45;5.80;;;12.40;99.90;;;;;;5017223;28;20091;-72
2021/12/30 10:35:03;;;;;;;14.95;6.35;;;12.20;99.90;;;;;;5034064;28;20417;-72
2021/12/30 10:37:34;;;;;;;17.73;6.07;;;12.20;99.90;;;;;;5014672;28;20495;-72
2021/12/30 10:40:00;;;;;;;14.23;5.20;;;12.20;99.90;;;;;;4998478;28;20041;-72
2021/12/30 10:42:32;;;;;;;14.50;5.55;;;12.20;99.90;;;;;;5019107;28;20067;-73
2021/12/30 10:45:04;;;;;;;16.27;6.05;;;12.30;99.90;;;;;;5034509;28;20041;-73
2021/12/30 10:47:33;;;;;;;17.50;5.68;;;12.30;99.90;;;;;;5017246;28;20055;-71
2021/12/30 10:50:12;;;;;;;15.23;5.85;;;12.30;99.90;;;;;;5017778;28;20142;-72
2021/12/30 10:52:49;;;;;;;15.63;5.57;;;12.20;99.90;;;;;;5050869;28;20057;-72
2021/12/30 10:55:32;;;;;;;19.80;6.03;;;12.20;99.90;;;;;;5034541;28;20068;-73
2021/12/30 10:57:59;;;;;;;17.10;5.90;;;12.30;99.90;;;;;;5020728;28;20476;-72
2021/12/30 11:00:30;;;;;;;17.90;5.93;;;12.30;99.90;;;;;;5034435;28;20567;-72
2021/12/30 11:03:27;;;;;;;15.20;7.68;;;12.30;99.90;;;;;;5033891;28;20110;-71
2021/12/30 11:06:19;;;;;;;17.05;5.97;;;12.30;99.90;;;;;;5034520;28;20445;-71
2021/12/30 11:08:50;;;;;;;21.20;5.93;;;12.30;99.90;;;;;;5034859;28;20056;-73
2021/12/30 11:11:22;;;;;;;19.00;6.68;;;12.20;99.90;;;;;;5035589;28;20040;-71
2021/12/30 11:14:12;;;;;;;27.92;6.85;;;12.40;99.90;;;;;;5042814;28;20095;-71
2021/12/30 11:17:04;;;;;;;19.35;6.22;;;12.30;99.90;;;;;;5043115;28;20053;-72
2021/12/30 11:20:11;;;;;;;25.83;6.70;;;12.30;99.90;;;;;;5053306;28;20035;-72
2021/12/30 11:22:39;;;;;;;21.55;6.53;;;12.30;99.90;;;;;;5036416;28;20052;-73
2021/12/30 11:25:10;;;;;;;15.43;4.82;;;12.30;99.90;;;;;;5038367;28;20052;-72
2021/12/30 11:27:39;;;;;;;23.48;7.18;;;12.40;99.90;;;;;;5021130;28;20052;-72
2021/12/30 11:30:34;;;;;;;19.85;5.95;;;12.30;99.90;;;;;;5037086;28;20041;-73
2021/12/30 11:33:02;;;;;;;21.70;5.80;;;12.40;99.90;;;;;;5020721;28;20053;-73
2021/12/30 11:35:29;;;;;;;21.85;6.72;;;12.30;99.90;;;;;;5037695;28;20052;-72
2021/12/30 11:38:18;;;;;;;28.42;6.50;;;12.30;99.90;;;;;;5037708;28;20056;-73
2021/12/30 11:40:46;;;;;;;24.00;7.45;;;12.30;99.90;;;;;;5026857;28;20087;-73
2021/12/30 11:43:16;;;;;;;23.85;6.72;;;12.40;99.90;;;;;;5021396;28;20436;-71
2021/12/30 11:45:50;;;;;;;19.70;5.03;;;12.30;99.90;;;;;;5036656;28;20044;-70
2021/12/30 11:48:26;;;;;;;21.80;6.10;;;12.30;99.90;;;;;;5019552;28;20076;-71
2021/12/30 11:51:22;;;;;;;26.92;5.75;;;12.40;99.90;;;;;;5055446;28;20052;-71
2021/12/30 11:53:52;;;;;;;23.38;6.03;;;12.40;99.90;;;;;;5036909;28;20138;-71
2021/12/30 11:56:33;;;;;;;20.92;5.18;;;12.30;99.90;;;;;;5037114;28;20547;-71
2021/12/30 11:58:59;;;;;;;19.42;5.18;;;12.40;99.90;;;;;;5036873;28;20068;-71
2021/12/30 12:01:44;;;;;;;16.63;4.93;;;12.40;99.90;;;;;;5019719;28;20492;-70
2021/12/30 12:04:14;;;;;;;25.83;5.53;;;12.40;99.90;;;;;;5032833;28;20119;-71
2021/12/30 12:06:59;;;;;;;18.15;4.53;;;12.40;99.90;;;;;;5035742;28;20053;-73
2021/12/30 12:09:30;;;;;;;17.75;4.50;;;12.40;99.90;;;;;;5035988;28;20424;-71
2021/12/30 12:12:37;;;;;;;22.40;4.38;;;12.40;99.90;;;;;;5053814;28;20449;-71
2021/12/30 12:15:06;;;;;;;18.88;4.85;;;12.40;99.90;;;;;;5053601;28;20131;-72
2021/12/30 12:17:48;;;;;;;23.08;4.70;;;12.40;99.90;;;;;;5024416;28;20436;-70
2021/12/30 12:20:22;;;;;;;19.77;4.60;;;12.40;99.90;;;;;;5054798;28;20049;-71
2021/12/30 12:22:48;;;;;;;18.95;4.40;;;12.50;99.90;;;;;;5019805;28;20045;-71
2021/12/30 12:25:32;;;;;;;20.60;5.07;;;12.50;99.90;;;;;;5036857;28;20049;-72
2021/12/30 12:28:01;;;;;;;20.00;5.05;;;12.50;99.90;;;;;;5036171;28;20545;-73
2021/12/30 12:30:50;;;;;;;15.30;4.93;;;12.50;99.90;;;;;;5036580;28;20120;-72
2021/12/30 12:33:56;;;;;;;18.27;4.60;;;12.50;99.90;;;;;;5035882;28;20053;-71
2021/12/30 12:36:33;;;;;;;17.65;4.50;;;12.40;99.90;;;;;;5003766;28;20128;-74
2021/12/30 12:38:59;;;;;;;21.48;4.57;;;12.50;99.90;;;;;;5020285;28;20054;-73
2021/12/30 12:41:25;;;;;;;25.10;5.90;;;12.80;99.90;;;;;;5033394;28;20042;-73
2021/12/30 12:44:21;;;;;;;24.23;4.55;;;12.50;99.90;;;;;;5016338;28;20045;-71
2021/12/30 12:46:49;;;;;;;17.20;4.38;;;12.50;99.90;;;;;;5043083;28;20106;-72
2021/12/30 12:49:35;;;;;;;16.50;3.90;;;12.50;99.90;;;;;;5036136;28;20041;-71
2021/12/30 12:52:03;;;;;;;19.45;4.65;;;12.60;99.90;;;;;;5019330;28;20041;-71
2021/12/30 12:54:40;;;;;;;21.00;4.95;;;12.50;99.90;;;;;;5019661;28;20104;-72
2021/12/30 12:57:12;;;;;;;17.27;4.60;;;12.60;99.90;;;;;;5009657;28;20065;-73
2021/12/30 12:59:39;;;;;;;20.27;4.75;;;12.60;99.90;;;;;;5000068;28;20050;-73
2021/12/30 13:02:07;;;;;;;17.50;5.00;;;12.60;99.90;;;;;;5024496;28;20102;-72
2021/12/30 13:04:33;;;;;;;20.38;4.75;;;12.50;99.90;;;;;;5036492;28;20084;-70
2021/12/30 13:07:07;;;;;;;16.95;4.90;;;12.60;99.90;;;;;;5036375;28;20170;-71
2021/12/30 13:09:33;;;;;;;20.38;4.60;;;12.60;99.90;;;;;;5034682;28;20057;-71
2021/12/30 13:12:04;;;;;;;21.38;4.35;;;12.60;99.90;;;;;;5034800;28;20060;-72
2021/12/30 13:14:33;;;;;;;21.23;4.22;;;12.50;99.90;;;;;;5035805;28;20421;-70
2021/12/30 13:17:11;;;;;;;17.95;5.10;;;12.50;99.90;;;;;;5034977;28;20479;-71
2021/12/30 13:19:50;;;;;;;19.80;4.43;;;12.50;99.90;;;;;;5019471;28;20084;-72
2021/12/30 13:22:18;;;;;;;21.60;4.65;;;12.50;99.90;;;;;;5035742;28;20052;-71
2021/12/30 13:25:00;;;;;;;20.02;4.43;;;12.50;99.90;;;;;;5034481;28;20057;-71
2021/12/30 13:27:41;;;;;;;24.38;5.18;;;12.50;99.90;;;;;;5053444;28;20125;-72
2021/12/30 13:30:15;;;;;;;24.05;5.28;;;12.50;99.90;;;;;;5021025;28;20084;-70
2021/12/30 13:32:52;;;;;;;23.30;4.75;;;12.50;99.90;;;;;;5015046;28;20087;-71
2021/12/30 13:35:25;;;;;;;17.05;4.82;;;12.50;99.90;;;;;;5014746;28;20084;-72
2021/12/30 13:38:07;;;;;;;21.00;5.13;;;12.50;99.90;;;;;;5015148;28;20050;-72
2021/12/30 13:40:40;;;;;;;18.45;4.97;;;12.50;99.90;;;;;;5015392;28;20080;-72
2021/12/30 13:43:19;;;;;;;18.67;4.57;;;12.50;99.90;;;;;;5015041;28;20049;-70
2021/12/30 13:45:48;;;;;;;17.73;5.35;;;12.50;99.90;;;;;;5015564;28;20449;-74
2021/12/30 13:48:18;;;;;;;23.95;4.95;;;12.50;99.90;;;;;;5015961;28;20450;-71
2021/12/30 13:50:53;;;;;;;19.48;4.85;;;12.50;99.90;;;;;;5032249;28;20148;-70
2021/12/30 13:53:19;;;;;;;17.23;4.38;;;12.50;99.90;;;;;;5031852;28;20057;-71
2021/12/30 13:55:57;;;;;;;20.73;4.97;;;12.50;99.90;;;;;;5014540;28;20464;-70
2021/12/30 13:58:25;;;;;;;16.98;4.65;;;12.50;99.90;;;;;;5015165;28;20084;-70
2021/12/30 14:00:59;;;;;;;19.27;4.95;;;12.50;99.90;;;;;;5001108;28;20045;-71
2021/12/30 14:03:32;;;;;;;20.55;5.15;;;12.60;99.90;;;;;;5035039;28;20099;-72